createdAt,value
2023-05-01T00:00:58.079Z,33.57
2023-05-01T00:03:25.149Z,34.67
2023-05-01T00:05:52.088Z,35.58
2023-05-01T00:08:19.350Z,32.88
2023-05-01T00:10:46.914Z,35.00
2023-05-01T00:13:13.752Z,34.15
2023-05-01T00:15:42.705Z,33.97
2023-05-01T00:18:09.665Z,34.30
2023-05-01T00:20:36.453Z,38.90
2023-05-01T00:23:03.203Z,35.60
2023-05-01T00:25:31.441Z,33.85
2023-05-01T00:27:59.924Z,32.75
2023-05-01T00:30:27.833Z,34.05
2023-05-01T00:32:54.687Z,34.42
2023-05-01T00:35:21.992Z,33.15
2023-05-01T00:37:49.409Z,36.05
2023-05-01T00:40:16.603Z,37.40
2023-05-01T00:42:43.570Z,33.33
2023-05-01T00:45:11.102Z,36.13
2023-05-01T00:47:39.240Z,31.48
2023-05-01T00:50:07.565Z,32.25
2023-05-01T00:52:36.138Z,30.65
2023-05-01T00:55:04.832Z,30.20
2023-05-01T00:57:32.589Z,29.35
2023-05-01T00:59:59.685Z,34.17
2023-05-01T01:02:27.401Z,29.38
2023-05-01T01:04:56.041Z,28.38
2023-05-01T01:07:44.983Z,31.55
2023-05-01T01:10:28.801Z,34.30
2023-05-01T01:12:58.387Z,30.70
2023-05-01T01:15:39.986Z,31.63
2023-05-01T01:18:37.980Z,32.58
2023-05-01T01:21:08.595Z,27.85
2023-05-01T01:24:00.980Z,30.00
2023-05-01T01:26:52.401Z,30.75
2023-05-01T01:29:49.670Z,29.50
2023-05-01T01:32:51.914Z,29.48
2023-05-01T01:35:20.903Z,27.50
2023-05-01T01:37:55.752Z,30.80
2023-05-01T01:40:33.423Z,29.88
2023-05-01T01:43:05.334Z,30.10
2023-05-01T01:45:39.474Z,32.00
2023-05-01T01:48:09.735Z,27.90
2023-05-01T01:50:38.677Z,28.00
2023-05-01T01:53:08.673Z,31.63
2023-05-01T01:55:38.016Z,28.48
2023-05-01T01:58:06.615Z,28.38
2023-05-01T02:00:35.676Z,30.83
2023-05-01T02:03:04.942Z,29.17
2023-05-01T02:05:32.984Z,28.80
2023-05-01T02:08:00.553Z,27.80
2023-05-01T02:10:28.872Z,27.35
2023-05-01T02:12:58.121Z,24.85
2023-05-01T02:15:26.910Z,30.00
2023-05-01T02:17:54.728Z,25.17
2023-05-01T02:20:22.072Z,28.52
2023-05-01T02:22:50.838Z,29.52
2023-05-01T02:25:17.646Z,31.27
2023-05-01T02:27:48.975Z,28.95
2023-05-01T02:30:17.195Z,28.85
2023-05-01T02:32:44.175Z,28.83
2023-05-01T02:35:11.218Z,28.00
2023-05-01T02:37:38.732Z,33.92
2023-05-01T02:40:07.505Z,30.35
2023-05-01T02:42:35.397Z,30.45
2023-05-01T02:45:05.548Z,30.73
2023-05-01T02:47:35.664Z,25.40
2023-05-01T02:50:03.830Z,27.95
2023-05-01T02:52:33.794Z,32.15
2023-05-01T02:55:01.032Z,33.38
2023-05-01T02:57:27.985Z,30.65
2023-05-01T02:59:54.838Z,34.85
2023-05-01T03:02:21.929Z,37.88
2023-05-01T03:04:49.077Z,37.50
2023-05-01T03:07:15.858Z,33.13
2023-05-01T03:09:42.809Z,36.20
2023-05-01T03:12:09.652Z,31.05
2023-05-01T03:14:36.438Z,37.28
2023-05-01T03:17:03.292Z,37.25
2023-05-01T03:19:30.591Z,30.05
2023-05-01T03:21:57.302Z,31.27
2023-05-01T03:24:24.466Z,34.25
2023-05-01T03:26:51.201Z,35.85
2023-05-01T03:29:17.958Z,35.95
2023-05-01T03:31:44.734Z,38.10
2023-05-01T03:34:11.530Z,36.78
2023-05-01T03:36:38.353Z,29.23
2023-05-01T03:39:05.649Z,33.45
2023-05-01T03:41:32.376Z,26.48
2023-05-01T03:43:59.421Z,27.38
2023-05-01T03:46:26.140Z,30.58
2023-05-01T03:48:52.852Z,25.30
2023-05-01T03:51:19.631Z,28.02
2023-05-01T03:53:46.391Z,31.05
2023-05-01T03:56:13.103Z,25.83
2023-05-01T03:58:39.898Z,29.15
2023-05-01T04:01:06.744Z,28.23
2023-05-01T04:03:33.840Z,23.20
2023-05-01T04:06:00.961Z,28.58
2023-05-01T04:08:27.754Z,29.50
2023-05-01T04:10:54.467Z,28.83
2023-05-01T04:13:21.316Z,25.77
2023-05-01T04:15:48.401Z,25.55
2023-05-01T04:18:15.285Z,25.00
2023-05-01T04:20:44.278Z,27.10
2023-05-01T04:23:11.394Z,31.30
2023-05-01T04:25:38.228Z,29.77
2023-05-01T04:28:05.180Z,27.77
2023-05-01T04:30:32.163Z,25.48
2023-05-01T04:32:59.300Z,25.15
2023-05-01T04:35:26.103Z,28.50
2023-05-01T04:37:52.854Z,23.27
2023-05-01T04:40:19.627Z,24.33
2023-05-01T04:42:46.301Z,26.25
2023-05-01T04:45:13.498Z,26.55
2023-05-01T04:47:40.491Z,25.48
2023-05-01T04:50:08.289Z,24.38
2023-05-01T04:52:38.068Z,24.27
2023-05-01T04:55:05.360Z,26.38
2023-05-01T04:57:32.387Z,22.48
2023-05-01T04:59:59.622Z,25.63
2023-05-01T05:02:26.690Z,23.73
2023-05-01T05:04:54.159Z,21.23
2023-05-01T05:07:21.105Z,21.55
2023-05-01T05:09:47.890Z,25.10
2023-05-01T05:12:17.679Z,24.52
2023-05-01T05:14:44.414Z,23.48
2023-05-01T05:17:11.341Z,20.55
2023-05-01T05:19:38.029Z,24.73
2023-05-01T05:22:05.297Z,23.20
2023-05-01T05:24:32.617Z,21.00
2023-05-01T05:26:59.403Z,18.85
2023-05-01T05:29:26.077Z,21.30
2023-05-01T05:31:52.958Z,21.00
2023-05-01T05:34:19.809Z,20.02
2023-05-01T05:36:46.583Z,20.48
2023-05-01T05:39:13.852Z,23.85
2023-05-01T05:41:40.559Z,15.85
2023-05-01T05:44:07.543Z,21.70
2023-05-01T05:46:34.451Z,19.50
2023-05-01T05:49:02.818Z,15.98
2023-05-01T05:51:29.652Z,15.07
2023-05-01T05:53:56.397Z,17.92
2023-05-01T05:56:24.804Z,21.35
2023-05-01T05:58:51.578Z,16.35
2023-05-01T06:01:18.314Z,15.43
2023-05-01T06:03:45.042Z,15.18
2023-05-01T06:06:12.115Z,16.33
2023-05-01T06:08:39.123Z,10.40
2023-05-01T06:11:07.360Z,11.85
2023-05-01T06:13:34.614Z,14.20
2023-05-01T06:16:01.502Z,8.23
2023-05-01T06:18:30.153Z,12.60
2023-05-01T06:20:57.113Z,8.23
2023-05-01T06:23:23.854Z,8.43
2023-05-01T06:25:51.541Z,7.95
2023-05-01T06:28:18.598Z,6.80
2023-05-01T06:30:47.458Z,6.85
2023-05-01T06:33:14.687Z,8.25
2023-05-01T06:35:41.471Z,5.57
2023-05-01T06:38:08.355Z,7.60
2023-05-01T06:40:35.448Z,10.07
2023-05-01T06:43:03.157Z,4.80
2023-05-01T06:45:30.062Z,7.82
2023-05-01T06:47:58.213Z,6.88
2023-05-01T06:50:25.038Z,6.82
2023-05-01T06:52:54.381Z,8.05
2023-05-01T06:55:21.430Z,7.63
2023-05-01T06:57:48.128Z,6.47
2023-05-01T07:00:15.960Z,8.95
2023-05-01T07:02:43.379Z,12.25
2023-05-01T07:05:10.266Z,9.68
2023-05-01T07:07:38.933Z,11.98
2023-05-01T07:10:09.251Z,9.35
2023-05-01T07:12:37.053Z,8.30
2023-05-01T07:15:04.281Z,7.97
2023-05-01T07:17:31.186Z,11.77
2023-05-01T07:19:58.037Z,11.48
2023-05-01T07:22:24.829Z,8.68
2023-05-01T07:24:51.597Z,8.38
2023-05-01T07:27:18.350Z,8.82
2023-05-01T07:29:45.082Z,7.18
2023-05-01T07:32:11.912Z,9.50
2023-05-01T07:34:38.748Z,11.10
2023-05-01T07:37:05.625Z,6.80
2023-05-01T07:39:32.706Z,7.55
2023-05-01T07:41:59.464Z,8.70
2023-05-01T07:44:26.149Z,11.38
2023-05-01T07:46:52.897Z,9.20
2023-05-01T07:49:19.616Z,8.15
2023-05-01T07:51:46.397Z,5.63
2023-05-01T07:54:14.905Z,9.55
2023-05-01T07:56:41.802Z,12.35
2023-05-01T07:59:08.747Z,7.97
2023-05-01T08:01:36.772Z,10.07
2023-05-01T08:04:03.969Z,9.93
2023-05-01T08:06:32.056Z,10.50
2023-05-01T08:08:59.110Z,7.47
2023-05-01T08:11:27.222Z,11.27
2023-05-01T08:13:53.998Z,9.25
2023-05-01T08:16:22.037Z,12.73
2023-05-01T08:18:49.015Z,5.53
2023-05-01T08:21:15.720Z,8.32
2023-05-01T08:23:42.427Z,9.23
2023-05-01T08:26:09.100Z,8.20
2023-05-01T08:28:35.854Z,7.93
2023-05-01T08:31:03.739Z,6.95
2023-05-01T08:33:30.575Z,6.85
2023-05-01T08:35:57.327Z,6.60
2023-05-01T08:38:24.078Z,5.45
2023-05-01T08:40:54.294Z,9.10
2023-05-01T08:43:21.402Z,10.63
2023-05-01T08:45:48.979Z,9.60
2023-05-01T08:48:18.603Z,8.07
2023-05-01T08:50:47.877Z,7.88
2023-05-01T08:53:17.526Z,8.73
2023-05-01T08:55:49.949Z,7.22
2023-05-01T08:58:18.807Z,7.38
2023-05-01T09:00:47.030Z,6.75
2023-05-01T09:03:14.545Z,6.35
2023-05-01T09:05:41.575Z,5.65
2023-05-01T09:08:08.525Z,9.27
2023-05-01T09:10:42.356Z,10.75
2023-05-01T09:13:10.333Z,7.18
2023-05-01T09:15:37.216Z,6.40
2023-05-01T09:18:04.418Z,5.53
2023-05-01T09:20:31.998Z,13.35
2023-05-01T09:22:59.507Z,4.68
2023-05-01T09:25:27.398Z,7.05
2023-05-01T09:27:56.955Z,8.93
2023-05-01T09:30:34.208Z,10.55
2023-05-01T09:33:12.490Z,8.82
2023-05-01T09:35:49.962Z,11.85
2023-05-01T09:38:27.493Z,12.68
2023-05-01T09:40:56.781Z,11.45
2023-05-01T09:43:28.576Z,6.10
2023-05-01T09:46:11.923Z,8.27
2023-05-01T09:48:39.014Z,6.20
2023-05-01T09:51:25.265Z,8.95
2023-05-01T09:53:52.493Z,9.48
2023-05-01T09:56:21.665Z,9.25
2023-05-01T09:58:50.822Z,6.80
2023-05-01T10:01:17.749Z,5.93
2023-05-01T10:03:46.295Z,5.82
2023-05-01T10:06:27.230Z,11.18
2023-05-01T10:08:54.832Z,10.20
2023-05-01T10:11:22.867Z,11.10
2023-05-01T10:14:09.724Z,8.18
2023-05-01T10:16:38.322Z,14.95
2023-05-01T10:19:05.922Z,7.03
2023-05-01T10:21:33.564Z,8.20
2023-05-01T10:24:04.628Z,6.82
2023-05-01T10:26:33.296Z,5.45
2023-05-01T10:29:01.426Z,6.53
2023-05-01T10:31:29.894Z,6.38
2023-05-01T10:33:56.869Z,7.75
2023-05-01T10:36:47.694Z,15.18
2023-05-01T10:39:40.640Z,8.38
2023-05-01T10:42:14.408Z,5.68
2023-05-01T10:44:42.424Z,7.05
2023-05-01T10:47:27.821Z,7.20
2023-05-01T10:50:09.133Z,11.75
2023-05-01T10:53:10.864Z,6.40
2023-05-01T10:55:39.070Z,5.85
2023-05-01T10:58:06.046Z,18.60
2023-05-01T11:00:34.333Z,28.92
2023-05-01T11:03:23.133Z,5.30
2023-05-01T11:06:08.863Z,6.78
2023-05-01T11:08:38.484Z,8.52
2023-05-01T11:11:21.088Z,7.88
2023-05-01T11:14:02.944Z,5.65
2023-05-01T11:16:45.949Z,4.85
2023-05-01T11:19:38.446Z,9.25
2023-05-01T11:22:14.963Z,10.63
2023-05-01T11:24:42.537Z,8.55
2023-05-01T11:27:14.348Z,5.40
2023-05-01T11:29:44.776Z,13.15
2023-05-01T11:32:19.645Z,6.40
2023-05-01T11:34:48.364Z,13.93
2023-05-01T11:37:15.074Z,9.75
2023-05-01T11:39:48.960Z,7.07
2023-05-01T11:42:15.784Z,8.73
2023-05-01T11:44:42.591Z,9.23
2023-05-01T11:47:09.350Z,7.10
2023-05-01T11:49:36.322Z,8.95
2023-05-01T11:52:03.140Z,7.25
2023-05-01T11:54:30.030Z,5.90
2023-05-01T11:57:01.016Z,7.40
2023-05-01T11:59:28.045Z,5.85
2023-05-01T12:01:55.228Z,7.75
2023-05-01T12:04:32.055Z,7.55
2023-05-01T12:06:59.455Z,8.73
2023-05-01T12:09:27.039Z,11.93
2023-05-01T12:11:54.516Z,6.55
2023-05-01T12:14:22.033Z,10.60
2023-05-01T12:16:49.458Z,10.50
2023-05-01T12:19:17.368Z,6.00
2023-05-01T12:21:44.223Z,7.47
2023-05-01T12:24:16.491Z,9.50
2023-05-01T12:26:44.948Z,10.40
2023-05-01T12:29:12.103Z,5.75
2023-05-01T12:31:49.892Z,10.23
2023-05-01T12:34:17.011Z,6.35
2023-05-01T12:36:54.085Z,12.05
2023-05-01T12:39:22.120Z,12.18
2023-05-01T12:41:49.556Z,10.35
2023-05-01T12:44:25.371Z,6.82
2023-05-01T12:47:00.206Z,6.32
2023-05-01T12:49:29.598Z,9.73
2023-05-01T12:51:57.518Z,6.33
2023-05-01T12:54:39.096Z,8.73
2023-05-01T12:57:08.395Z,10.52
2023-05-01T12:59:39.342Z,6.33
2023-05-01T13:02:08.564Z,8.23
2023-05-01T13:04:35.559Z,7.57
2023-05-01T13:07:02.929Z,9.80
2023-05-01T13:09:33.108Z,8.52
2023-05-01T13:12:02.673Z,6.18
2023-05-01T13:14:35.452Z,6.27
2023-05-01T13:17:02.510Z,8.50
2023-05-01T13:19:29.651Z,9.30
2023-05-01T13:21:58.108Z,6.65
2023-05-01T13:24:35.850Z,8.70
2023-05-01T13:27:05.027Z,9.60
2023-05-01T13:29:32.765Z,7.47
2023-05-01T13:31:59.850Z,7.35
2023-05-01T13:34:33.604Z,5.70
2023-05-01T13:37:02.008Z,8.50
2023-05-01T13:39:29.352Z,10.50
2023-05-01T13:41:56.567Z,7.95
2023-05-01T13:44:23.395Z,5.82
2023-05-01T13:46:51.211Z,7.07
2023-05-01T13:49:22.285Z,6.68
2023-05-01T13:51:49.187Z,17.13
2023-05-01T13:54:17.074Z,8.45
2023-05-01T13:56:44.006Z,11.32
2023-05-01T13:59:10.944Z,6.22
2023-05-01T14:01:47.584Z,8.68
2023-05-01T14:04:17.995Z,7.78
2023-05-01T14:06:47.194Z,5.88
2023-05-01T14:09:17.407Z,10.23
2023-05-01T14:11:46.820Z,7.93
2023-05-01T14:14:18.527Z,7.90
2023-05-01T14:16:50.258Z,10.38
2023-05-01T14:19:20.026Z,5.70
2023-05-01T14:21:47.018Z,7.68
2023-05-01T14:24:18.276Z,8.05
2023-05-01T14:26:50.789Z,8.45
2023-05-01T14:29:24.059Z,9.05
2023-05-01T14:31:51.274Z,6.07
2023-05-01T14:34:18.944Z,9.20
2023-05-01T14:36:45.917Z,5.32
2023-05-01T14:39:13.240Z,9.13
2023-05-01T14:41:42.363Z,7.22
2023-05-01T14:44:13.713Z,8.93
2023-05-01T14:46:47.105Z,7.15
2023-05-01T14:49:19.967Z,7.78
2023-05-01T14:51:47.182Z,9.43
2023-05-01T14:54:15.026Z,7.57
2023-05-01T14:56:46.195Z,5.70
2023-05-01T14:59:13.454Z,6.93
2023-05-01T15:01:40.625Z,9.23
2023-05-01T15:04:07.732Z,6.53
2023-05-01T15:06:34.745Z,6.53
2023-05-01T15:09:02.188Z,16.48
2023-05-01T15:11:30.407Z,11.73
2023-05-01T15:13:57.305Z,9.10
2023-05-01T15:16:24.054Z,8.32
2023-05-01T15:18:51.071Z,11.95
2023-05-01T15:21:18.243Z,8.00
2023-05-01T15:23:46.156Z,9.07
2023-05-01T15:26:12.983Z,12.05
2023-05-01T15:28:39.808Z,13.43
2023-05-01T15:31:07.079Z,6.60
2023-05-01T15:33:33.967Z,9.35
2023-05-01T15:36:01.064Z,5.90
2023-05-01T15:38:28.392Z,6.65
2023-05-01T15:40:56.269Z,6.18
2023-05-01T15:43:23.430Z,6.82
2023-05-01T15:45:51.334Z,4.38
2023-05-01T15:48:18.241Z,10.73
2023-05-01T15:50:46.745Z,7.50
2023-05-01T15:53:17.104Z,13.00
2023-05-01T15:55:44.052Z,10.15
2023-05-01T15:58:11.023Z,6.50
2023-05-01T16:00:39.675Z,7.03
2023-05-01T16:03:08.220Z,10.30
2023-05-01T16:05:37.912Z,11.90
2023-05-01T16:08:06.456Z,9.55
2023-05-01T16:10:37.218Z,10.77
2023-05-01T16:13:06.365Z,8.85
2023-05-01T16:15:33.991Z,8.35
2023-05-01T16:18:03.933Z,9.57
2023-05-01T16:20:35.218Z,5.47
2023-05-01T16:23:02.195Z,5.57
2023-05-01T16:25:28.984Z,10.43
2023-05-01T16:27:55.763Z,11.98
2023-05-01T16:30:24.597Z,8.27
2023-05-01T16:32:51.354Z,5.68
2023-05-01T16:35:18.383Z,10.38
2023-05-01T16:37:45.245Z,7.82
2023-05-01T16:40:17.035Z,6.82
2023-05-01T16:42:54.129Z,7.53
2023-05-01T16:45:21.255Z,7.28
2023-05-01T16:47:47.990Z,10.07
2023-05-01T16:50:16.349Z,8.43
2023-05-01T16:52:43.104Z,14.48
2023-05-01T16:55:10.087Z,10.02
2023-05-01T16:57:36.887Z,8.82
2023-05-01T17:00:05.213Z,8.73
2023-05-01T17:02:32.866Z,9.68
2023-05-01T17:05:00.350Z,8.98
2023-05-01T17:07:27.136Z,12.85
2023-05-01T17:09:54.003Z,10.27
2023-05-01T17:12:20.720Z,9.65
2023-05-01T17:14:47.528Z,13.38
2023-05-01T17:17:15.015Z,17.65
2023-05-01T17:19:41.812Z,16.17
2023-05-01T17:22:08.491Z,15.40
2023-05-01T17:24:36.290Z,21.67
2023-05-01T17:27:05.814Z,23.80
2023-05-01T17:29:32.538Z,18.58
2023-05-01T17:31:59.297Z,19.65
2023-05-01T17:34:26.211Z,17.25
2023-05-01T17:36:53.760Z,23.65
2023-05-01T17:39:22.879Z,12.65
2023-05-01T17:41:49.960Z,9.32
2023-05-01T17:44:16.646Z,14.57
2023-05-01T17:46:43.345Z,23.98
2023-05-01T17:49:10.371Z,25.98
2023-05-01T17:51:37.411Z,44.50
2023-05-01T17:54:04.187Z,25.70
2023-05-01T17:56:30.934Z,24.77
2023-05-01T17:58:57.678Z,24.35
2023-05-01T18:01:25.094Z,23.50
2023-05-01T18:03:52.264Z,22.27
2023-05-01T18:06:19.127Z,24.30
2023-05-01T18:08:45.898Z,26.15
2023-05-01T18:11:12.632Z,25.25
2023-05-01T18:13:40.070Z,25.27
2023-05-01T18:16:06.853Z,23.42
2023-05-01T18:18:33.567Z,22.08
2023-05-01T18:21:00.369Z,40.15
2023-05-01T18:23:27.295Z,55.60
2023-05-01T18:25:55.997Z,42.63
2023-05-01T18:28:24.082Z,94.97
2023-05-01T18:30:52.288Z,89.22
2023-05-01T18:33:19.158Z,73.57
2023-05-01T18:35:45.860Z,41.67
2023-05-01T18:38:12.852Z,50.72
2023-05-01T18:40:39.556Z,40.22
2023-05-01T18:43:06.396Z,29.25
2023-05-01T18:45:33.375Z,32.05
2023-05-01T18:48:00.988Z,30.40
2023-05-01T18:50:28.758Z,36.17
2023-05-01T18:52:57.776Z,56.85
2023-05-01T18:55:25.180Z,64.45
2023-05-01T18:57:52.127Z,67.28
2023-05-01T19:00:21.120Z,66.82
2023-05-01T19:02:51.849Z,70.97
2023-05-01T19:05:19.730Z,61.65
2023-05-01T19:07:46.723Z,51.03
2023-05-01T19:10:14.216Z,51.47
2023-05-01T19:12:42.029Z,41.67
2023-05-01T19:15:13.452Z,39.80
2023-05-01T19:17:41.490Z,51.28
2023-05-01T19:20:08.756Z,46.60
2023-05-01T19:22:35.765Z,49.47
2023-05-01T19:25:02.682Z,56.28
2023-05-01T19:27:29.543Z,51.20
2023-05-01T19:29:59.238Z,48.33
2023-05-01T19:32:28.552Z,43.83
2023-05-01T19:34:56.634Z,41.00
2023-05-01T19:37:23.713Z,34.55
2023-05-01T19:39:50.560Z,41.75
2023-05-01T19:42:17.505Z,33.08
2023-05-01T19:44:44.297Z,36.45
2023-05-01T19:47:11.897Z,37.50
2023-05-01T19:49:39.351Z,31.83
2023-05-01T19:52:06.362Z,35.55
2023-05-01T19:54:33.430Z,36.25
2023-05-01T19:57:00.142Z,36.67
2023-05-01T19:59:27.370Z,42.20
2023-05-01T20:01:54.437Z,44.75
2023-05-01T20:04:23.235Z,41.75
2023-05-01T20:06:50.472Z,39.53
2023-05-01T20:09:17.544Z,43.88
2023-05-01T20:11:44.360Z,44.90
2023-05-01T20:14:11.208Z,42.05
2023-05-01T20:16:38.232Z,38.90
2023-05-01T20:19:04.942Z,35.95
2023-05-01T20:21:32.620Z,37.67
2023-05-01T20:23:59.439Z,39.00
2023-05-01T20:26:26.250Z,36.97
2023-05-01T20:28:53.606Z,36.33
2023-05-01T20:31:20.422Z,35.38
2023-05-01T20:33:47.172Z,35.60
2023-05-01T20:36:14.834Z,38.45
2023-05-01T20:38:43.428Z,34.95
2023-05-01T20:41:10.225Z,34.20
2023-05-01T20:43:39.250Z,34.75
2023-05-01T20:46:06.055Z,35.72
2023-05-01T20:48:32.987Z,33.72
2023-05-01T20:50:59.705Z,35.67
2023-05-01T20:53:26.450Z,37.58
2023-05-01T20:55:53.119Z,38.70
2023-05-01T20:58:19.821Z,40.22
2023-05-01T21:00:46.578Z,42.33
2023-05-01T21:03:15.208Z,37.88
2023-05-01T21:05:42.151Z,37.13
2023-05-01T21:08:08.811Z,38.83
2023-05-01T21:10:36.780Z,37.30
2023-05-01T21:13:03.976Z,33.53
2023-05-01T21:15:31.909Z,35.42
2023-05-01T21:17:58.790Z,34.20
2023-05-01T21:20:35.403Z,32.22
2023-05-01T21:23:02.355Z,33.20
2023-05-01T21:25:29.971Z,32.10
2023-05-01T21:27:56.880Z,28.40
2023-05-01T21:30:33.594Z,29.70
2023-05-01T21:33:02.329Z,27.38
2023-05-01T21:35:30.180Z,30.52
2023-05-01T21:37:57.830Z,25.92
2023-05-01T21:40:25.249Z,28.33
2023-05-01T21:42:54.438Z,24.58
2023-05-01T21:45:21.407Z,23.88
2023-05-01T21:47:52.925Z,21.95
2023-05-01T21:50:21.198Z,24.70
2023-05-01T21:52:49.238Z,20.40
2023-05-01T21:55:25.603Z,22.15
2023-05-01T21:57:53.364Z,22.67
2023-05-01T22:00:20.822Z,21.52
2023-05-01T22:02:51.905Z,23.95
2023-05-01T22:05:22.325Z,19.13
2023-05-01T22:07:51.888Z,20.05
2023-05-01T22:10:19.669Z,20.15
2023-05-01T22:12:48.799Z,15.57
2023-05-01T22:15:16.459Z,16.60
2023-05-01T22:17:44.266Z,17.27
2023-05-01T22:20:11.467Z,14.27
2023-05-01T22:22:39.874Z,14.93
2023-05-01T22:25:07.246Z,19.08
2023-05-01T22:27:34.463Z,15.65
2023-05-01T22:30:01.900Z,15.15
2023-05-01T22:32:29.125Z,15.77
2023-05-01T22:34:55.916Z,16.10
2023-05-01T22:37:22.969Z,15.63
2023-05-01T22:39:49.732Z,15.52
2023-05-01T22:42:16.562Z,15.35
2023-05-01T22:44:43.310Z,13.18
2023-05-01T22:47:10.184Z,13.85
2023-05-01T22:49:37.001Z,11.18
2023-05-01T22:52:04.059Z,19.25
2023-05-01T22:54:30.743Z,14.50
2023-05-01T22:56:57.431Z,12.95
2023-05-01T22:59:24.224Z,12.63
2023-05-01T23:01:51.046Z,11.48
2023-05-01T23:04:18.108Z,13.70
2023-05-01T23:06:44.962Z,17.63
2023-05-01T23:09:11.979Z,10.13
2023-05-01T23:11:40.876Z,15.05
2023-05-01T23:14:07.742Z,15.30
2023-05-01T23:16:44.591Z,11.95
2023-05-01T23:19:23.273Z,9.57
2023-05-01T23:21:51.578Z,13.43
2023-05-01T23:24:21.081Z,13.93
2023-05-01T23:26:47.777Z,11.73
2023-05-01T23:29:18.302Z,13.13
2023-05-01T23:31:46.970Z,15.10
2023-05-01T23:34:18.282Z,12.50
2023-05-01T23:36:46.615Z,13.77
2023-05-01T23:39:13.878Z,17.48
2023-05-01T23:41:40.893Z,16.90
2023-05-01T23:44:08.563Z,18.20
2023-05-01T23:46:36.677Z,15.55
2023-05-01T23:49:03.685Z,16.02
2023-05-01T23:51:31.447Z,14.55
2023-05-01T23:53:58.907Z,14.75
2023-05-01T23:56:25.682Z,15.82
2023-05-01T23:58:52.385Z,13.30
